createdAt,value
2022-11-19T00:01:07.969Z,100.00
2022-11-19T00:06:12.854Z,100.00
2022-11-19T00:11:38.763Z,100.00
2022-11-19T00:16:42.007Z,100.00
2022-11-19T00:21:44.705Z,100.00
2022-11-19T00:26:48.735Z,100.00
2022-11-19T00:31:51.784Z,100.00
2022-11-19T00:36:54.323Z,100.00
2022-11-19T00:41:58.209Z,100.00
2022-11-19T00:47:01.192Z,100.00
2022-11-19T00:52:03.938Z,100.00
2022-11-19T00:57:09.580Z,100.00
2022-11-19T01:02:12.237Z,100.00
2022-11-19T01:07:14.975Z,100.00
2022-11-19T01:12:18.961Z,100.00
2022-11-19T01:17:21.599Z,100.00
2022-11-19T01:22:24.147Z,100.00
2022-11-19T01:27:28.004Z,100.00
2022-11-19T01:32:31.029Z,100.00
2022-11-19T01:37:33.624Z,100.00
2022-11-19T01:42:53.812Z,100.00
2022-11-19T01:47:59.574Z,100.00
2022-11-19T01:53:02.742Z,100.00
2022-11-19T01:58:08.445Z,100.00
2022-11-19T02:03:12.682Z,100.00
2022-11-19T02:08:40.957Z,100.00
2022-11-19T02:13:51.729Z,100.00
2022-11-19T02:19:01.291Z,100.00
2022-11-19T02:24:43.004Z,100.00
2022-11-19T02:30:16.423Z,100.00
2022-11-19T02:35:27.786Z,100.00
2022-11-19T02:40:35.025Z,100.00
2022-11-19T02:45:44.136Z,100.00
2022-11-19T02:50:50.226Z,100.00
2022-11-19T02:56:06.933Z,100.00
2022-11-19T03:01:28.761Z,100.00
2022-11-19T03:06:32.552Z,100.00
2022-11-19T03:11:35.526Z,100.00
2022-11-19T03:16:44.678Z,100.00
2022-11-19T03:21:53.926Z,100.00
2022-11-19T03:27:01.755Z,100.00
2022-11-19T03:32:10.867Z,100.00
2022-11-19T03:37:18.927Z,100.00
2022-11-19T03:42:23.539Z,100.00
2022-11-19T03:47:32.805Z,100.00
2022-11-19T03:52:35.373Z,100.00
2022-11-19T03:57:38.150Z,100.00
2022-11-19T04:02:42.071Z,100.00
2022-11-19T04:07:44.595Z,100.00
2022-11-19T04:12:47.167Z,100.00
2022-11-19T04:17:51.209Z,100.00
2022-11-19T04:22:53.766Z,100.00
2022-11-19T04:27:56.500Z,100.00
2022-11-19T04:33:00.408Z,100.00
2022-11-19T04:38:02.918Z,100.00
2022-11-19T04:43:05.740Z,100.00
2022-11-19T04:48:10.030Z,100.00
2022-11-19T04:53:12.626Z,100.00
2022-11-19T04:58:15.379Z,100.00
2022-11-19T05:03:19.302Z,100.00
2022-11-19T05:08:22.303Z,100.00
2022-11-19T05:13:24.890Z,100.00
2022-11-19T05:18:28.759Z,100.00
2022-11-19T05:23:31.271Z,100.00
2022-11-19T05:28:39.114Z,100.00
2022-11-19T05:33:43.727Z,100.00
2022-11-19T05:38:46.261Z,100.00
2022-11-19T05:43:48.893Z,100.00
2022-11-19T05:48:53.172Z,100.00
2022-11-19T05:53:55.715Z,100.00
2022-11-19T05:58:58.253Z,100.00
2022-11-19T06:04:02.119Z,100.00
2022-11-19T06:09:05.097Z,100.00
2022-11-19T06:14:08.023Z,100.00
2022-11-19T06:19:12.427Z,100.00
2022-11-19T06:24:15.285Z,100.00
2022-11-19T06:29:19.111Z,100.00
2022-11-19T06:34:23.255Z,100.00
2022-11-19T06:39:25.877Z,100.00
2022-11-19T06:44:28.383Z,100.00
2022-11-19T06:49:32.256Z,100.00
2022-11-19T06:54:37.729Z,100.00
2022-11-19T06:59:42.779Z,100.00
2022-11-19T07:04:46.697Z,100.00
2022-11-19T07:09:49.240Z,100.00
2022-11-19T07:14:52.054Z,100.00
2022-11-19T07:19:55.949Z,100.00
2022-11-19T07:24:58.681Z,100.00
2022-11-19T07:30:02.083Z,100.00
2022-11-19T07:35:06.960Z,100.00
2022-11-19T07:40:11.418Z,100.00
2022-11-19T07:45:13.960Z,100.00
2022-11-19T07:50:18.290Z,100.00
2022-11-19T07:55:20.796Z,100.00
2022-11-19T08:00:24.319Z,100.00
2022-11-19T08:05:28.592Z,100.00
2022-11-19T08:10:31.979Z,100.00
2022-11-19T08:15:35.391Z,100.00
2022-11-19T08:20:39.797Z,100.00
2022-11-19T08:25:43.985Z,100.00
2022-11-19T08:30:47.193Z,100.00
2022-11-19T08:35:55.363Z,100.00
2022-11-19T08:41:11.842Z,100.00
2022-11-19T08:46:14.441Z,100.00
2022-11-19T08:51:18.285Z,100.00
2022-11-19T08:56:22.384Z,100.00
2022-11-19T09:01:25.332Z,100.00
2022-11-19T09:06:29.227Z,100.00
2022-11-19T09:11:31.994Z,100.00
2022-11-19T09:16:34.713Z,100.00
2022-11-19T09:21:38.607Z,100.00
2022-11-19T09:26:41.192Z,100.00
2022-11-19T09:31:43.740Z,100.00
2022-11-19T09:36:48.332Z,100.00
2022-11-19T09:41:56.277Z,100.00
2022-11-19T09:47:13.446Z,100.00
2022-11-19T09:52:21.100Z,100.00
2022-11-19T09:57:31.173Z,100.00
2022-11-19T10:02:34.131Z,100.00
2022-11-19T10:07:44.983Z,100.00
2022-11-19T10:13:29.293Z,100.00
2022-11-19T10:18:41.263Z,100.00
2022-11-19T10:23:52.726Z,100.00
2022-11-19T10:28:57.647Z,100.00
2022-11-19T10:34:05.715Z,100.00
2022-11-19T10:39:18.537Z,100.00
2022-11-19T10:44:40.219Z,100.00
2022-11-19T10:49:45.208Z,100.00
2022-11-19T10:54:51.272Z,100.00
2022-11-19T10:59:55.501Z,100.00
2022-11-19T11:05:05.168Z,100.00
2022-11-19T11:10:26.183Z,100.00
2022-11-19T11:15:28.821Z,100.00
2022-11-19T11:20:32.393Z,100.00
2022-11-19T11:25:37.275Z,99.88
2022-11-19T11:30:55.860Z,100.00
2022-11-19T11:36:02.439Z,99.92
2022-11-19T11:46:41.992Z,99.36
2022-11-19T11:51:44.696Z,99.87
2022-11-19T11:56:49.196Z,98.16
2022-11-19T12:01:56.450Z,98.55
2022-11-19T12:07:13.469Z,99.37
2022-11-19T12:12:28.868Z,100.00
2022-11-19T12:17:43.979Z,100.00
2022-11-19T12:22:57.947Z,98.77
2022-11-19T12:28:19.765Z,100.00
2022-11-19T12:33:37.990Z,98.07
2022-11-19T12:38:49.560Z,98.76
2022-11-19T12:43:57.735Z,98.63
2022-11-19T12:49:20.334Z,98.57
2022-11-19T12:54:35.810Z,97.37
2022-11-19T12:59:49.015Z,96.60
2022-11-19T13:04:57.651Z,96.84
2022-11-19T13:10:04.963Z,97.72
2022-11-19T13:15:18.169Z,96.66
2022-11-19T13:20:27.497Z,97.36
2022-11-19T13:25:34.235Z,97.61
2022-11-19T13:30:49.467Z,97.79
2022-11-19T13:35:58.241Z,97.18
2022-11-19T13:41:05.619Z,97.50
2022-11-19T13:51:53.755Z,97.24
2022-11-19T13:56:58.658Z,96.67
2022-11-19T14:02:32.134Z,98.07
2022-11-19T14:08:00.116Z,99.45
2022-11-19T14:13:36.085Z,97.83
2022-11-19T14:19:01.065Z,95.90
2022-11-19T14:24:41.328Z,93.72
2022-11-19T14:29:57.996Z,96.82
2022-11-19T14:35:21.596Z,95.65
2022-11-19T14:40:27.499Z,97.40
2022-11-19T14:45:31.468Z,97.47
2022-11-19T14:50:34.677Z,95.58
2022-11-19T14:55:39.080Z,97.10
2022-11-19T15:00:43.693Z,97.81
2022-11-19T15:05:47.402Z,97.08
2022-11-19T15:11:04.844Z,97.27
2022-11-19T15:16:12.342Z,96.45
2022-11-19T15:21:27.174Z,96.50
2022-11-19T15:26:37.531Z,96.46
2022-11-19T15:31:53.471Z,94.61
2022-11-19T15:36:59.828Z,92.26
2022-11-19T15:42:07.000Z,93.30
2022-11-19T15:47:15.641Z,95.61
2022-11-19T15:52:24.827Z,95.21
2022-11-19T15:57:28.603Z,95.34
2022-11-19T16:02:37.458Z,95.47
2022-11-19T16:07:41.245Z,94.16
2022-11-19T16:13:11.919Z,93.61
2022-11-19T16:18:17.995Z,93.74
2022-11-19T16:23:22.981Z,93.67
2022-11-19T16:28:30.340Z,94.31
2022-11-19T16:33:35.625Z,93.24
2022-11-19T16:38:40.887Z,93.71
2022-11-19T16:43:47.002Z,92.31
2022-11-19T16:55:53.476Z,91.54
2022-11-19T17:00:59.322Z,92.31
2022-11-19T17:06:04.031Z,91.96
2022-11-19T17:11:40.605Z,93.28
2022-11-19T17:16:47.279Z,93.46
2022-11-19T17:21:56.570Z,94.49
2022-11-19T17:27:00.734Z,94.02
2022-11-19T17:32:04.814Z,93.39
2022-11-19T17:37:09.570Z,95.36
2022-11-19T17:42:36.139Z,93.66
2022-11-19T17:47:38.703Z,93.41
2022-11-19T17:52:41.285Z,94.46
2022-11-19T17:57:45.183Z,94.03
2022-11-19T18:02:48.699Z,93.03
2022-11-19T18:07:51.565Z,91.64
2022-11-19T18:12:55.904Z,91.24
2022-11-19T18:17:58.616Z,93.57
2022-11-19T18:23:01.297Z,92.85
2022-11-19T18:28:05.252Z,92.69
2022-11-19T18:33:10.183Z,94.30
2022-11-19T18:38:12.815Z,93.73
2022-11-19T18:43:39.705Z,94.69
2022-11-19T18:48:43.372Z,93.57
2022-11-19T18:53:46.258Z,93.79
2022-11-19T18:58:50.300Z,94.55
2022-11-19T19:03:53.517Z,96.92
2022-11-19T19:08:56.176Z,95.87
2022-11-19T19:14:00.392Z,95.59
2022-11-19T19:19:03.354Z,95.51
2022-11-19T19:24:07.746Z,95.38
2022-11-19T19:29:12.825Z,95.28
2022-11-19T19:34:15.416Z,95.01
2022-11-19T19:39:20.044Z,96.36
2022-11-19T19:44:24.256Z,95.99
2022-11-19T19:49:26.903Z,95.87
2022-11-19T19:54:29.493Z,95.32
2022-11-19T19:59:33.734Z,96.32
2022-11-19T20:04:36.648Z,96.15
2022-11-19T20:09:39.707Z,96.70
2022-11-19T20:14:43.833Z,96.39
2022-11-19T20:19:46.351Z,96.77
2022-11-19T20:24:48.937Z,96.85
2022-11-19T20:29:53.407Z,97.64
2022-11-19T20:34:56.418Z,98.10
2022-11-19T20:39:59.122Z,98.67
2022-11-19T20:45:03.071Z,97.57
2022-11-19T20:50:06.462Z,97.79
2022-11-19T20:55:10.091Z,98.32
2022-11-19T21:00:16.112Z,98.61
2022-11-19T21:05:18.686Z,98.26
2022-11-19T21:10:21.233Z,97.71
2022-11-19T21:15:26.334Z,100.00
2022-11-19T21:20:29.111Z,100.00
2022-11-19T21:25:31.890Z,100.00
2022-11-19T21:30:36.034Z,100.00
2022-11-19T21:35:41.826Z,100.00
2022-11-19T21:40:44.378Z,100.00
2022-11-19T21:45:48.833Z,100.00
2022-11-19T21:50:52.488Z,100.00
2022-11-19T21:55:57.870Z,100.00
2022-11-19T22:01:04.029Z,100.00
2022-11-19T22:06:08.629Z,100.00
2022-11-19T22:11:31.736Z,100.00
2022-11-19T22:16:38.183Z,100.00
2022-11-19T22:21:41.247Z,100.00
2022-11-19T22:26:43.834Z,100.00
2022-11-19T22:31:47.929Z,100.00
2022-11-19T22:36:50.672Z,100.00
2022-11-19T22:41:53.450Z,100.00
2022-11-19T22:46:59.210Z,100.00
2022-11-19T22:52:01.885Z,100.00
2022-11-19T22:57:04.707Z,100.00
2022-11-19T23:02:08.666Z,100.00
2022-11-19T23:07:11.435Z,100.00
2022-11-19T23:12:31.669Z,100.00
2022-11-19T23:17:35.555Z,100.00
2022-11-19T23:22:38.182Z,100.00
2022-11-19T23:27:40.772Z,100.00
2022-11-19T23:32:44.637Z,100.00
2022-11-19T23:37:47.387Z,100.00
2022-11-19T23:42:52.115Z,100.00
2022-11-19T23:47:56.226Z,100.00
2022-11-19T23:52:58.770Z,100.00
2022-11-19T23:58:01.531Z,100.00
